Terminal Aerodrome Forecast
Issued by NWS

Home | Current Version | Previous Version | Text Only | Print | Product List | Glossary On
Versions: 1 2 3 4 5 6 7 8 9 10 11 12 13 14 15 16 17 18 19 20 21 22 23 24 25 26 27 28 29 30 31 32
000
FTUS42 KJAX 191700
TAFVQQ
TAF
KVQQ 191721Z 1918/2018 22005KT P6SM VCSH SCT010 BKN020
      TEMPO 1918/1920 BKN010
     FM192000 34008KT P6SM VCSH OVC010
      TEMPO 1920/1924 4SM -DZ BR
     FM200300 33011KT P6SM OVC008
     FM201000 35013KT P6SM OVC010
     FM201300 36015G23KT P6SM BKN015=

USA.gov is the U.S. government's official web portal to all federal, state and local government web resources and services.